createdAt,value
2023-02-11T00:01:06.586Z,5.81
2023-02-11T00:03:33.086Z,5.80
2023-02-11T00:06:06.089Z,5.80
2023-02-11T00:08:32.487Z,5.81
2023-02-11T00:10:58.885Z,5.81
2023-02-11T00:13:26.105Z,5.82
2023-02-11T00:15:53.431Z,5.82
2023-02-11T00:18:20.033Z,5.85
2023-02-11T00:20:46.506Z,5.85
2023-02-11T00:23:13.402Z,5.85
2023-02-11T00:25:41.526Z,5.85
2023-02-11T00:28:08.933Z,5.84
2023-02-11T00:30:35.953Z,5.83
2023-02-11T00:33:03.431Z,5.82
2023-02-11T00:35:31.618Z,5.83
2023-02-11T00:37:58.056Z,5.84
2023-02-11T00:40:24.560Z,5.84
2023-02-11T00:42:51.104Z,5.84
2023-02-11T00:45:17.645Z,5.84
2023-02-11T00:47:44.110Z,5.84
2023-02-11T00:50:10.549Z,5.85
2023-02-11T00:52:36.963Z,5.83
2023-02-11T00:55:03.570Z,5.82
2023-02-11T00:57:31.602Z,5.82
2023-02-11T00:59:57.981Z,5.81
2023-02-11T01:02:24.401Z,5.80
2023-02-11T01:04:50.859Z,5.80
2023-02-11T01:07:17.265Z,5.79
2023-02-11T01:09:43.772Z,5.77
2023-02-11T01:12:10.246Z,5.75
2023-02-11T01:14:36.792Z,5.74
2023-02-11T01:17:05.681Z,5.72
2023-02-11T01:19:32.134Z,5.70
2023-02-11T01:21:58.510Z,5.67
2023-02-11T01:24:25.118Z,5.64
2023-02-11T01:26:51.503Z,5.59
2023-02-11T01:29:17.896Z,5.56
2023-02-11T01:31:44.297Z,5.54
2023-02-11T01:34:10.710Z,5.52
2023-02-11T01:36:37.456Z,5.50
2023-02-11T01:39:03.958Z,5.49
2023-02-11T01:41:30.460Z,5.49
2023-02-11T01:43:58.026Z,5.49
2023-02-11T01:46:36.889Z,5.51
2023-02-11T01:49:11.813Z,5.52
2023-02-11T01:52:01.760Z,5.53
2023-02-11T01:55:00.873Z,5.51
2023-02-11T01:57:32.404Z,5.51
2023-02-11T02:00:20.799Z,5.49
2023-02-11T02:03:02.553Z,5.52
2023-02-11T02:06:05.987Z,5.52
2023-02-11T02:08:35.400Z,5.52
2023-02-11T02:11:03.001Z,5.52
2023-02-11T02:13:32.165Z,5.53
2023-02-11T02:16:04.506Z,5.52
2023-02-11T02:19:05.972Z,5.51
2023-02-11T02:21:59.899Z,5.50
2023-02-11T02:24:51.172Z,5.49
2023-02-11T02:28:09.406Z,5.48
2023-02-11T02:30:50.944Z,5.46
2023-02-11T02:33:54.608Z,5.41
2023-02-11T02:36:33.759Z,5.34
2023-02-11T02:39:06.150Z,5.27
2023-02-11T02:41:35.701Z,5.25
2023-02-11T02:44:02.886Z,5.22
2023-02-11T02:46:31.968Z,5.21
2023-02-11T02:48:58.893Z,5.20
2023-02-11T02:51:51.994Z,5.21
2023-02-11T02:54:43.740Z,5.19
2023-02-11T02:57:18.826Z,5.20
2023-02-11T03:00:21.332Z,5.21
2023-02-11T03:02:58.947Z,5.22
2023-02-11T03:05:50.091Z,5.21
2023-02-11T03:08:18.686Z,5.20
2023-02-11T03:10:50.972Z,5.19
2023-02-11T03:13:21.674Z,5.18
2023-02-11T03:15:51.035Z,5.17
2023-02-11T03:18:24.071Z,5.16
2023-02-11T03:20:53.533Z,5.13
2023-02-11T03:23:33.220Z,5.11
2023-02-11T03:26:06.750Z,5.08
2023-02-11T03:28:49.350Z,5.06
2023-02-11T03:31:42.132Z,5.06
2023-02-11T03:34:26.271Z,5.04
2023-02-11T03:37:06.507Z,5.05
2023-02-11T03:39:40.170Z,5.05
2023-02-11T03:42:09.678Z,5.05
2023-02-11T03:44:53.333Z,5.03
2023-02-11T03:47:24.482Z,5.02
2023-02-11T03:49:53.170Z,5.00
2023-02-11T03:52:21.443Z,5.01
2023-02-11T03:54:53.415Z,5.02
2023-02-11T03:57:19.858Z,5.01
2023-02-11T03:59:55.581Z,4.98
2023-02-11T04:02:29.136Z,4.96
2023-02-11T04:04:55.821Z,4.97
2023-02-11T04:07:22.294Z,4.97
2023-02-11T04:09:48.711Z,4.97
2023-02-11T04:12:15.199Z,4.97
2023-02-11T04:14:41.687Z,4.98
2023-02-11T04:17:08.353Z,5.00
2023-02-11T04:19:35.019Z,4.99
2023-02-11T04:22:02.317Z,5.01
2023-02-11T04:24:28.791Z,5.02
2023-02-11T04:26:55.494Z,5.00
2023-02-11T04:29:22.205Z,5.00
2023-02-11T04:31:49.122Z,5.00
2023-02-11T04:34:15.904Z,5.01
2023-02-11T04:36:42.306Z,5.02
2023-02-11T04:39:08.714Z,5.01
2023-02-11T04:41:35.243Z,5.00
2023-02-11T04:44:01.654Z,5.00
2023-02-11T04:46:28.166Z,5.02
2023-02-11T04:48:54.629Z,5.02
2023-02-11T04:51:21.069Z,5.02
2023-02-11T04:53:47.523Z,5.02
2023-02-11T04:56:13.905Z,5.04
2023-02-11T04:58:40.339Z,5.03
2023-02-11T05:01:12.656Z,5.06
2023-02-11T05:03:40.042Z,5.06
2023-02-11T05:06:06.933Z,5.06
2023-02-11T05:08:33.685Z,5.05
2023-02-11T05:11:02.058Z,5.09
2023-02-11T05:13:29.375Z,5.09
2023-02-11T05:15:55.949Z,5.10
2023-02-11T05:18:22.880Z,5.14
2023-02-11T05:20:49.368Z,5.13
2023-02-11T05:23:15.804Z,5.14
2023-02-11T05:25:42.252Z,5.17
2023-02-11T05:28:08.765Z,5.19
2023-02-11T05:30:35.303Z,5.19
2023-02-11T05:33:01.844Z,5.21
2023-02-11T05:35:28.287Z,5.24
2023-02-11T05:37:54.680Z,5.25
2023-02-11T05:40:21.222Z,5.29
2023-02-11T05:42:47.730Z,5.30
2023-02-11T05:45:14.182Z,5.31
2023-02-11T05:47:40.627Z,5.33
2023-02-11T05:50:07.305Z,5.37
2023-02-11T05:52:33.754Z,5.38
2023-02-11T05:55:00.306Z,5.38
2023-02-11T05:57:26.795Z,5.39
2023-02-11T05:59:53.226Z,5.40
2023-02-11T06:02:19.771Z,5.43
2023-02-11T06:04:46.230Z,5.43
2023-02-11T06:07:12.627Z,5.45
2023-02-11T06:09:39.250Z,5.44
2023-02-11T06:12:05.825Z,5.43
2023-02-11T06:14:34.060Z,5.45
2023-02-11T06:17:01.337Z,5.46
2023-02-11T06:19:27.832Z,5.47
2023-02-11T06:21:56.300Z,5.47
2023-02-11T06:24:47.856Z,5.50
2023-02-11T06:27:09.442Z,5.50
2023-02-11T06:29:36.090Z,5.51
2023-02-11T06:32:02.641Z,5.51
2023-02-11T06:34:29.169Z,5.53
2023-02-11T06:36:55.587Z,5.55
2023-02-11T06:39:22.125Z,5.54
2023-02-11T06:41:48.583Z,5.55
2023-02-11T06:44:15.036Z,5.56
2023-02-11T06:46:41.438Z,5.57
2023-02-11T06:49:07.906Z,5.59
2023-02-11T06:51:34.365Z,5.58
2023-02-11T06:54:00.807Z,5.59
2023-02-11T06:56:27.496Z,5.60
2023-02-11T06:58:57.652Z,5.64
2023-02-11T07:01:25.863Z,5.64
2023-02-11T07:03:52.547Z,5.64
2023-02-11T07:06:21.793Z,5.66
2023-02-11T07:08:48.985Z,5.67
2023-02-11T07:11:24.644Z,5.67
2023-02-11T07:13:52.721Z,5.68
2023-02-11T07:16:20.027Z,5.71
2023-02-11T07:18:47.948Z,5.74
2023-02-11T07:21:17.950Z,5.75
2023-02-11T07:23:45.013Z,5.77
2023-02-11T07:26:14.672Z,5.79
2023-02-11T07:28:41.959Z,5.81
2023-02-11T07:31:37.573Z,5.84
2023-02-11T07:34:04.127Z,5.85
2023-02-11T07:36:31.934Z,5.88
2023-02-11T07:39:00.078Z,5.88
2023-02-11T07:41:26.991Z,5.90
2023-02-11T07:43:53.437Z,5.92
2023-02-11T07:46:25.784Z,5.93
2023-02-11T07:48:53.147Z,5.95
2023-02-11T07:51:22.537Z,5.96
2023-02-11T07:53:49.705Z,5.94
2023-02-11T07:56:17.657Z,5.95
2023-02-11T07:58:44.206Z,5.97
2023-02-11T08:01:22.476Z,6.00
2023-02-11T08:03:48.990Z,5.99
2023-02-11T08:06:17.473Z,6.00
2023-02-11T08:08:44.604Z,5.98
2023-02-11T08:11:16.697Z,5.98
2023-02-11T08:13:43.201Z,5.98
2023-02-11T08:16:16.809Z,6.00
2023-02-11T08:18:43.377Z,6.03
2023-02-11T08:21:10.622Z,6.06
2023-02-11T08:23:39.082Z,6.09
2023-02-11T08:26:08.412Z,6.10
2023-02-11T08:28:37.201Z,6.13
2023-02-11T08:31:08.711Z,6.13
2023-02-11T08:33:35.300Z,6.14
2023-02-11T08:36:03.386Z,6.13
2023-02-11T08:38:29.765Z,6.13
2023-02-11T08:40:56.141Z,6.14
2023-02-11T08:43:23.499Z,6.15
2023-02-11T08:45:50.275Z,6.18
2023-02-11T08:48:16.917Z,6.18
2023-02-11T08:50:43.377Z,6.22
2023-02-11T08:53:09.832Z,6.24
2023-02-11T08:55:36.306Z,6.32
2023-02-11T08:58:02.845Z,6.38
2023-02-11T09:00:29.857Z,6.45
2023-02-11T09:02:56.258Z,6.51
2023-02-11T09:05:23.032Z,6.58
2023-02-11T09:07:49.501Z,6.63
2023-02-11T09:10:16.061Z,6.68
2023-02-11T09:12:42.426Z,6.73
2023-02-11T09:15:09.297Z,6.76
2023-02-11T09:17:35.694Z,6.81
2023-02-11T09:20:02.100Z,6.87
2023-02-11T09:22:28.527Z,6.91
2023-02-11T09:24:54.980Z,6.99
2023-02-11T09:27:21.444Z,7.00
2023-02-11T09:29:47.918Z,7.05
2023-02-11T09:32:14.546Z,7.09
2023-02-11T09:34:41.283Z,7.17
2023-02-11T09:37:07.680Z,7.19
2023-02-11T09:39:34.073Z,7.22
2023-02-11T09:42:10.673Z,7.25
2023-02-11T09:44:39.505Z,7.32
2023-02-11T09:47:22.497Z,7.33
2023-02-11T09:49:51.642Z,7.41
2023-02-11T09:52:44.870Z,7.50
2023-02-11T09:55:27.944Z,7.60
2023-02-11T09:57:56.049Z,7.68
2023-02-11T10:00:36.286Z,7.75
2023-02-11T10:03:18.807Z,7.81
2023-02-11T10:06:03.794Z,7.90
2023-02-11T10:08:34.420Z,7.98
2023-02-11T10:11:20.091Z,8.04
2023-02-11T10:14:27.137Z,8.14
2023-02-11T10:17:02.792Z,8.28
2023-02-11T10:19:41.685Z,8.42
2023-02-11T10:22:19.189Z,8.54
2023-02-11T10:24:54.256Z,8.73
2023-02-11T10:27:28.512Z,8.84
2023-02-11T10:30:12.478Z,8.96
2023-02-11T10:33:04.234Z,9.11
2023-02-11T10:35:31.807Z,9.22
2023-02-11T10:37:59.679Z,9.42
2023-02-11T10:40:29.064Z,9.48
2023-02-11T10:43:00.672Z,9.50
2023-02-11T10:45:41.898Z,9.57
2023-02-11T10:48:42.231Z,9.56
2023-02-11T10:51:19.845Z,9.53
2023-02-11T10:53:49.533Z,9.53
2023-02-11T10:56:26.657Z,9.46
2023-02-11T10:59:01.036Z,9.42
2023-02-11T11:01:43.642Z,9.36
2023-02-11T11:04:33.877Z,9.28
2023-02-11T11:07:17.962Z,9.46
2023-02-11T11:10:02.471Z,9.57
2023-02-11T11:12:47.192Z,9.74
2023-02-11T11:15:18.799Z,10.02
2023-02-11T11:17:46.172Z,10.42
2023-02-11T11:20:20.753Z,10.68
2023-02-11T11:22:49.933Z,10.80
2023-02-11T11:25:30.302Z,10.79
2023-02-11T11:28:00.311Z,10.83
2023-02-11T11:30:39.701Z,10.78
2023-02-11T11:33:19.326Z,10.66
2023-02-11T11:35:57.391Z,10.54
2023-02-11T11:38:24.516Z,10.55
2023-02-11T11:41:18.357Z,10.61
2023-02-11T11:44:21.453Z,10.75
2023-02-11T11:46:51.094Z,10.89
2023-02-11T11:49:29.294Z,11.02
2023-02-11T11:52:13.931Z,10.88
2023-02-11T11:54:45.217Z,10.81
2023-02-11T11:57:18.354Z,10.77
2023-02-11T11:59:45.254Z,10.66
2023-02-11T12:02:41.303Z,10.46
2023-02-11T12:05:45.512Z,10.30
2023-02-11T12:08:20.562Z,10.30
2023-02-11T12:11:24.255Z,10.37
2023-02-11T12:14:08.956Z,10.48
2023-02-11T12:17:03.044Z,10.46
2023-02-11T12:19:57.477Z,10.45
2023-02-11T12:22:53.129Z,10.57
2023-02-11T12:25:37.818Z,10.47
2023-02-11T12:28:15.312Z,10.49
2023-02-11T12:30:50.322Z,10.59
2023-02-11T12:33:16.782Z,10.71
2023-02-11T12:35:48.931Z,10.72
2023-02-11T12:38:43.204Z,10.83
2023-02-11T12:41:57.489Z,10.93
2023-02-11T12:44:40.503Z,10.96
2023-02-11T12:47:25.012Z,10.94
2023-02-11T12:50:24.700Z,11.09
2023-02-11T12:53:00.315Z,11.05
2023-02-11T12:55:29.905Z,11.01
2023-02-11T12:58:00.245Z,10.95
2023-02-11T13:00:42.373Z,11.00
2023-02-11T13:03:33.095Z,11.01
2023-02-11T13:06:05.045Z,11.13
2023-02-11T13:08:35.201Z,11.17
2023-02-11T13:11:14.236Z,11.19
2023-02-11T13:13:49.569Z,11.29
2023-02-11T13:16:29.432Z,11.30
2023-02-11T13:19:11.473Z,11.35
2023-02-11T13:22:04.737Z,11.33
2023-02-11T13:25:01.501Z,11.24
2023-02-11T13:27:58.958Z,11.24
2023-02-11T13:30:35.114Z,11.21
2023-02-11T13:33:02.353Z,11.23
2023-02-11T13:35:57.425Z,11.23
2023-02-11T13:38:25.785Z,11.26
2023-02-11T13:41:04.335Z,11.26
2023-02-11T13:43:33.441Z,11.25
2023-02-11T13:46:03.157Z,11.26
2023-02-11T13:48:36.327Z,11.26
2023-02-11T13:51:09.004Z,11.32
2023-02-11T13:53:47.269Z,11.29
2023-02-11T13:56:29.680Z,11.18
2023-02-11T13:58:56.949Z,11.20
2023-02-11T14:02:17.762Z,11.16
2023-02-11T14:05:39.678Z,11.17
2023-02-11T14:08:30.810Z,11.16
2023-02-11T14:11:08.389Z,11.11
2023-02-11T14:13:46.929Z,10.97
2023-02-11T14:16:22.623Z,10.88
2023-02-11T14:18:54.654Z,10.80
2023-02-11T14:21:30.681Z,10.72
2023-02-11T14:24:04.697Z,10.64
2023-02-11T14:26:46.139Z,10.63
2023-02-11T14:29:18.784Z,10.63
2023-02-11T14:32:21.790Z,10.61
2023-02-11T14:35:05.887Z,10.59
2023-02-11T14:37:57.295Z,10.62
2023-02-11T14:40:32.909Z,10.65
2023-02-11T14:43:13.029Z,10.67
2023-02-11T14:45:40.257Z,10.66
2023-02-11T14:48:17.473Z,10.65
2023-02-11T14:50:54.942Z,10.63
2023-02-11T14:53:24.290Z,10.63
2023-02-11T14:55:52.965Z,10.59
2023-02-11T14:58:22.485Z,10.59
2023-02-11T15:01:00.860Z,10.60
2023-02-11T15:03:27.283Z,10.65
2023-02-11T15:06:01.853Z,10.64
2023-02-11T15:08:30.047Z,10.57
2023-02-11T15:10:57.851Z,10.57
2023-02-11T15:13:27.099Z,10.48
2023-02-11T15:15:57.849Z,10.42
2023-02-11T15:18:31.538Z,10.33
2023-02-11T15:20:58.034Z,10.21
2023-02-11T15:23:26.803Z,10.14
2023-02-11T15:25:56.065Z,10.05
2023-02-11T15:28:26.492Z,9.98
2023-02-11T15:31:05.743Z,9.93
2023-02-11T15:33:32.738Z,9.88
2023-02-11T15:36:02.194Z,9.84
2023-02-11T15:38:30.176Z,9.78
2023-02-11T15:40:58.349Z,9.72
2023-02-11T15:43:25.212Z,9.65
2023-02-11T15:45:51.540Z,9.52
2023-02-11T15:48:32.959Z,9.43
2023-02-11T15:51:04.919Z,9.34
2023-02-11T15:53:33.845Z,9.31
2023-02-11T15:56:17.462Z,9.24
2023-02-11T15:58:47.534Z,9.20
2023-02-11T16:01:14.287Z,9.11
2023-02-11T16:03:42.766Z,9.07
2023-02-11T16:06:42.306Z,9.01
2023-02-11T16:09:08.677Z,8.97
2023-02-11T16:11:57.897Z,8.87
2023-02-11T16:14:27.136Z,8.77
2023-02-11T16:16:58.222Z,8.68
2023-02-11T16:19:26.442Z,8.61
2023-02-11T16:21:58.547Z,8.53
2023-02-11T16:24:28.752Z,8.51
2023-02-11T16:26:58.969Z,8.50
2023-02-11T16:29:30.588Z,8.46
2023-02-11T16:32:16.188Z,8.43
2023-02-11T16:34:43.226Z,8.37
2023-02-11T16:37:10.080Z,8.31
2023-02-11T16:39:36.773Z,8.27
2023-02-11T16:42:06.357Z,8.23
2023-02-11T16:44:34.430Z,8.19
2023-02-11T16:47:03.207Z,8.15
2023-02-11T16:49:32.509Z,8.14
2023-02-11T16:52:03.880Z,8.12
2023-02-11T16:54:30.466Z,8.10
2023-02-11T16:56:57.272Z,8.13
2023-02-11T16:59:24.017Z,8.10
2023-02-11T17:01:53.170Z,8.12
2023-02-11T17:04:21.016Z,8.11
2023-02-11T17:06:50.873Z,8.11
2023-02-11T17:09:20.017Z,8.12
2023-02-11T17:11:46.797Z,8.09
2023-02-11T17:14:13.346Z,8.07
2023-02-11T17:16:40.149Z,8.07
2023-02-11T17:19:06.579Z,8.04
2023-02-11T17:21:33.290Z,8.00
2023-02-11T17:23:59.731Z,7.99
2023-02-11T17:26:26.163Z,7.97
2023-02-11T17:28:52.604Z,7.97
2023-02-11T17:31:19.167Z,7.94
2023-02-11T17:33:45.812Z,7.92
2023-02-11T17:36:12.404Z,7.86
2023-02-11T17:38:38.830Z,7.83
2023-02-11T17:41:05.438Z,7.82
2023-02-11T17:43:32.140Z,7.80
2023-02-11T17:45:58.567Z,7.80
2023-02-11T17:48:25.172Z,7.78
2023-02-11T17:50:51.565Z,7.77
2023-02-11T17:53:17.942Z,7.74
2023-02-11T17:55:44.320Z,7.72
2023-02-11T17:58:10.705Z,7.69
2023-02-11T18:00:37.168Z,7.68
2023-02-11T18:03:03.799Z,7.63
2023-02-11T18:05:35.465Z,7.60
2023-02-11T18:08:03.309Z,7.58
2023-02-11T18:10:30.013Z,7.56
2023-02-11T18:12:56.546Z,7.55
2023-02-11T18:15:23.033Z,7.52
2023-02-11T18:17:49.503Z,7.51
2023-02-11T18:20:16.051Z,7.48
2023-02-11T18:22:44.185Z,7.45
2023-02-11T18:25:15.122Z,7.45
2023-02-11T18:27:42.076Z,7.45
2023-02-11T18:30:15.062Z,7.44
2023-02-11T18:32:41.523Z,7.42
2023-02-11T18:35:14.775Z,7.41
2023-02-11T18:37:42.696Z,7.39
2023-02-11T18:40:10.758Z,7.39
2023-02-11T18:42:37.234Z,7.37
2023-02-11T18:45:07.033Z,7.37
2023-02-11T18:47:33.439Z,7.34
2023-02-11T18:49:59.860Z,7.32
2023-02-11T18:52:26.485Z,7.33
2023-02-11T18:54:52.871Z,7.33
2023-02-11T18:57:19.301Z,7.32
2023-02-11T18:59:45.706Z,7.34
2023-02-11T19:02:12.198Z,7.34
2023-02-11T19:04:38.694Z,7.34
2023-02-11T19:07:05.174Z,7.35
2023-02-11T19:09:31.665Z,7.33
2023-02-11T19:11:59.767Z,7.34
2023-02-11T19:14:29.495Z,7.33
2023-02-11T19:16:57.745Z,7.34
2023-02-11T19:19:27.882Z,7.34
2023-02-11T19:21:54.929Z,7.35
2023-02-11T19:24:22.568Z,7.37
2023-02-11T19:26:50.700Z,7.36
2023-02-11T19:29:18.834Z,7.36
2023-02-11T19:31:45.785Z,7.37
2023-02-11T19:34:14.389Z,7.37
2023-02-11T19:36:41.106Z,7.36
2023-02-11T19:39:07.842Z,7.37
2023-02-11T19:41:34.876Z,7.39
2023-02-11T19:44:02.032Z,7.39
2023-02-11T19:46:31.373Z,7.36
2023-02-11T19:48:59.984Z,7.36
2023-02-11T19:51:26.822Z,7.35
2023-02-11T19:53:53.879Z,7.35
2023-02-11T19:56:20.987Z,7.36
2023-02-11T19:58:47.532Z,7.36
2023-02-11T20:01:17.131Z,7.34
2023-02-11T20:03:43.666Z,7.33
2023-02-11T20:06:17.017Z,7.33
2023-02-11T20:08:44.014Z,7.34
2023-02-11T20:11:17.458Z,7.34
2023-02-11T20:13:44.295Z,7.31
2023-02-11T20:16:17.148Z,7.31
2023-02-11T20:18:44.364Z,7.30
2023-02-11T20:21:14.229Z,7.31
2023-02-11T20:23:40.757Z,7.32
2023-02-11T20:26:16.884Z,7.33
2023-02-11T20:28:43.776Z,7.32
2023-02-11T20:31:11.641Z,7.33
2023-02-11T20:33:39.091Z,7.32
2023-02-11T20:36:09.778Z,7.31
2023-02-11T20:38:36.669Z,7.30
2023-02-11T20:41:05.546Z,7.29
2023-02-11T20:43:32.394Z,7.29
2023-02-11T20:46:03.916Z,7.27
2023-02-11T20:48:31.459Z,7.28
2023-02-11T20:51:10.145Z,7.28
2023-02-11T20:53:38.694Z,7.28
2023-02-11T20:56:07.623Z,7.26
2023-02-11T20:58:34.738Z,7.24
2023-02-11T21:01:14.079Z,7.22
2023-02-11T21:03:40.814Z,7.20
2023-02-11T21:06:07.984Z,7.20
2023-02-11T21:08:34.494Z,7.17
2023-02-11T21:11:01.803Z,7.17
2023-02-11T21:13:28.351Z,7.17
2023-02-11T21:15:56.213Z,7.19
2023-02-11T21:18:23.974Z,7.19
2023-02-11T21:20:50.823Z,7.18
2023-02-11T21:23:17.383Z,7.19
2023-02-11T21:25:43.794Z,7.20
2023-02-11T21:28:10.221Z,7.19
2023-02-11T21:30:40.536Z,7.18
2023-02-11T21:33:07.370Z,7.18
2023-02-11T21:35:37.944Z,7.18
2023-02-11T21:38:04.822Z,7.17
2023-02-11T21:40:31.249Z,7.18
2023-02-11T21:42:58.496Z,7.21
2023-02-11T21:45:25.659Z,7.19
2023-02-11T21:47:52.321Z,7.18
2023-02-11T21:50:19.573Z,7.16
2023-02-11T21:52:46.186Z,7.16
2023-02-11T21:55:12.910Z,7.16
2023-02-11T21:57:39.454Z,7.15
2023-02-11T22:00:09.223Z,7.12
2023-02-11T22:02:38.060Z,7.11
2023-02-11T22:05:05.055Z,7.08
2023-02-11T22:07:31.641Z,7.09
2023-02-11T22:09:59.190Z,7.09
2023-02-11T22:12:25.592Z,7.09
2023-02-11T22:14:51.989Z,7.10
2023-02-11T22:17:18.537Z,7.08
2023-02-11T22:19:44.956Z,7.06
2023-02-11T22:22:17.970Z,7.07
2023-02-11T22:24:47.544Z,7.09
2023-02-11T22:27:20.200Z,7.09
2023-02-11T22:29:46.913Z,7.08
2023-02-11T22:32:13.877Z,7.06
2023-02-11T22:34:40.464Z,7.03
2023-02-11T22:37:07.479Z,7.04
2023-02-11T22:39:33.955Z,7.05
2023-02-11T22:42:00.414Z,7.05
2023-02-11T22:44:26.935Z,7.04
2023-02-11T22:46:53.693Z,7.03
2023-02-11T22:49:21.665Z,7.02
2023-02-11T22:51:48.934Z,7.03
2023-02-11T22:54:17.752Z,7.03
2023-02-11T22:56:44.720Z,7.04
2023-02-11T22:59:13.579Z,7.02
2023-02-11T23:01:40.672Z,7.03
2023-02-11T23:04:10.484Z,7.03
2023-02-11T23:06:37.165Z,7.04
2023-02-11T23:09:04.877Z,7.04
2023-02-11T23:11:31.835Z,7.03
2023-02-11T23:13:58.777Z,7.02
2023-02-11T23:16:30.720Z,7.03
2023-02-11T23:19:00.171Z,7.02
2023-02-11T23:21:29.615Z,7.02
2023-02-11T23:24:06.540Z,7.01
2023-02-11T23:26:34.035Z,6.99
2023-02-11T23:29:00.714Z,6.99
2023-02-11T23:31:40.311Z,7.00
2023-02-11T23:34:08.739Z,7.01
2023-02-11T23:36:35.588Z,6.99
2023-02-11T23:39:02.733Z,6.99
2023-02-11T23:41:29.199Z,6.99
2023-02-11T23:43:57.548Z,7.01
2023-02-11T23:46:25.620Z,6.98
2023-02-11T23:48:52.430Z,7.01
2023-02-11T23:51:19.298Z,7.01
2023-02-11T23:53:46.228Z,7.01
2023-02-11T23:56:21.790Z,7.01
2023-02-11T23:58:49.552Z,7.02
